createdAt,value
2023-05-09T00:01:29.943Z,7.43
2023-05-09T00:03:59.441Z,7.35
2023-05-09T00:06:27.739Z,7.25
2023-05-09T00:08:55.872Z,7.13
2023-05-09T00:11:23.311Z,7.03
2023-05-09T00:13:50.910Z,7.04
2023-05-09T00:16:18.688Z,6.92
2023-05-09T00:18:47.612Z,6.93
2023-05-09T00:21:14.666Z,6.80
2023-05-09T00:23:41.745Z,6.98
2023-05-09T00:26:10.512Z,7.01
2023-05-09T00:28:38.309Z,7.07
2023-05-09T00:31:05.652Z,7.04
2023-05-09T00:33:33.005Z,7.13
2023-05-09T00:36:00.170Z,7.08
2023-05-09T00:38:27.229Z,7.08
2023-05-09T00:40:54.537Z,7.22
2023-05-09T00:43:21.820Z,7.19
2023-05-09T00:45:49.363Z,7.20
2023-05-09T00:48:17.032Z,7.14
2023-05-09T00:50:44.246Z,7.08
2023-05-09T00:53:11.802Z,7.00
2023-05-09T00:55:40.082Z,7.04
2023-05-09T00:58:07.173Z,6.97
2023-05-09T01:00:34.233Z,6.96
2023-05-09T01:03:01.913Z,6.95
2023-05-09T01:05:54.000Z,6.92
2023-05-09T01:08:38.217Z,6.90
2023-05-09T01:11:17.620Z,6.86
2023-05-09T01:13:50.807Z,6.86
2023-05-09T01:16:35.108Z,6.81
2023-05-09T01:19:10.876Z,6.82
2023-05-09T01:21:43.753Z,6.84
2023-05-09T01:24:32.630Z,6.88
2023-05-09T01:27:18.699Z,6.86
2023-05-09T01:29:47.852Z,6.89
2023-05-09T01:32:21.035Z,6.89
2023-05-09T01:34:51.911Z,6.84
2023-05-09T01:37:23.976Z,6.77
2023-05-09T01:39:56.017Z,6.84
2023-05-09T01:42:25.934Z,6.73
2023-05-09T01:44:54.837Z,6.72
2023-05-09T01:47:23.438Z,6.76
2023-05-09T01:49:52.869Z,6.77
2023-05-09T01:52:21.642Z,6.70
2023-05-09T01:54:51.335Z,6.67
2023-05-09T01:57:20.566Z,6.66
2023-05-09T01:59:49.830Z,6.66
2023-05-09T02:02:18.650Z,6.60
2023-05-09T02:04:48.200Z,6.54
2023-05-09T02:07:15.784Z,6.47
2023-05-09T02:09:44.129Z,6.40
2023-05-09T02:12:11.520Z,6.40
2023-05-09T02:14:38.661Z,6.38
2023-05-09T02:17:07.038Z,6.41
2023-05-09T02:19:35.918Z,6.33
2023-05-09T02:22:04.935Z,6.37
2023-05-09T02:24:34.374Z,6.24
2023-05-09T02:27:04.384Z,6.22
2023-05-09T02:29:40.459Z,6.31
2023-05-09T02:32:16.004Z,6.23
2023-05-09T02:34:45.709Z,6.27
2023-05-09T02:37:13.596Z,6.19
2023-05-09T02:39:40.952Z,6.10
2023-05-09T02:42:10.802Z,6.01
2023-05-09T02:44:39.120Z,5.82
2023-05-09T02:47:07.337Z,5.77
2023-05-09T02:49:34.715Z,5.85
2023-05-09T02:52:02.938Z,5.85
2023-05-09T02:54:30.325Z,5.83
2023-05-09T02:56:57.468Z,5.84
2023-05-09T02:59:26.670Z,5.80
2023-05-09T03:01:54.381Z,5.91
2023-05-09T03:04:22.144Z,5.92
2023-05-09T03:06:50.229Z,5.97
2023-05-09T03:09:17.504Z,5.93
2023-05-09T03:11:45.007Z,5.88
2023-05-09T03:14:13.281Z,5.76
2023-05-09T03:16:40.706Z,5.72
2023-05-09T03:19:08.618Z,5.83
2023-05-09T03:21:36.374Z,5.83
2023-05-09T03:24:04.756Z,5.89
2023-05-09T03:26:31.935Z,5.91
2023-05-09T03:28:59.303Z,5.75
2023-05-09T03:31:26.824Z,5.70
2023-05-09T03:33:54.080Z,5.69
2023-05-09T03:36:22.123Z,5.70
2023-05-09T03:38:49.689Z,5.84
2023-05-09T03:41:19.541Z,5.81
2023-05-09T03:43:47.472Z,5.87
2023-05-09T03:46:14.648Z,6.05
2023-05-09T03:48:42.468Z,6.16
2023-05-09T03:51:10.122Z,6.38
2023-05-09T03:53:37.919Z,6.50
2023-05-09T03:56:06.548Z,6.69
2023-05-09T03:58:35.164Z,6.85
2023-05-09T04:01:02.665Z,6.88
2023-05-09T04:03:30.313Z,6.99
2023-05-09T04:05:58.024Z,7.11
2023-05-09T04:08:27.037Z,7.12
2023-05-09T04:10:54.419Z,7.21
2023-05-09T04:13:22.216Z,7.33
2023-05-09T04:15:49.683Z,7.42
2023-05-09T04:18:17.207Z,7.52
2023-05-09T04:20:44.629Z,7.59
2023-05-09T04:23:11.801Z,7.63
2023-05-09T04:25:40.110Z,7.81
2023-05-09T04:28:08.347Z,7.92
2023-05-09T04:30:37.160Z,8.04
2023-05-09T04:33:04.690Z,8.11
2023-05-09T04:35:32.768Z,8.22
2023-05-09T04:38:00.075Z,8.30
2023-05-09T04:40:27.473Z,8.63
2023-05-09T04:42:54.949Z,8.88
2023-05-09T04:45:22.675Z,8.82
2023-05-09T04:47:50.066Z,8.78
2023-05-09T04:50:17.567Z,8.78
2023-05-09T04:52:44.606Z,8.82
2023-05-09T04:55:12.332Z,8.81
2023-05-09T04:57:40.422Z,8.96
2023-05-09T05:00:08.538Z,8.90
2023-05-09T05:02:36.517Z,9.00
2023-05-09T05:05:21.749Z,9.22
2023-05-09T05:07:53.452Z,9.27
2023-05-09T05:10:21.318Z,9.51
2023-05-09T05:12:48.984Z,9.72
2023-05-09T05:15:22.215Z,9.83
2023-05-09T05:17:50.450Z,9.85
2023-05-09T05:20:17.969Z,9.94
2023-05-09T05:22:45.700Z,9.97
2023-05-09T05:25:13.460Z,9.92
2023-05-09T05:27:41.439Z,9.94
2023-05-09T05:30:10.828Z,10.13
2023-05-09T05:32:38.231Z,10.35
2023-05-09T05:35:06.365Z,11.21
2023-05-09T05:37:35.518Z,11.43
2023-05-09T05:40:02.938Z,11.69
2023-05-09T05:42:30.815Z,12.00
2023-05-09T05:45:04.269Z,12.47
2023-05-09T05:47:35.738Z,12.87
2023-05-09T05:50:11.681Z,13.10
2023-05-09T05:52:39.678Z,13.33
2023-05-09T05:55:10.633Z,13.23
2023-05-09T05:57:39.077Z,13.47
2023-05-09T06:00:11.615Z,13.10
2023-05-09T06:02:44.772Z,12.84
2023-05-09T06:05:14.111Z,12.93
2023-05-09T06:07:42.520Z,12.77
2023-05-09T06:10:10.315Z,13.17
2023-05-09T06:12:37.984Z,13.36
2023-05-09T06:15:07.116Z,13.37
2023-05-09T06:17:35.600Z,13.23
2023-05-09T06:20:03.578Z,12.88
2023-05-09T06:22:30.678Z,12.96
2023-05-09T06:24:57.860Z,13.14
2023-05-09T06:27:26.605Z,13.27
2023-05-09T06:29:53.764Z,13.05
2023-05-09T06:32:21.279Z,13.34
2023-05-09T06:34:48.657Z,13.48
2023-05-09T06:37:15.724Z,13.89
2023-05-09T06:39:42.714Z,14.23
2023-05-09T06:42:10.202Z,14.24
2023-05-09T06:44:37.611Z,14.28
2023-05-09T06:47:04.838Z,14.60
2023-05-09T06:49:32.205Z,15.32
2023-05-09T06:51:59.163Z,15.12
2023-05-09T06:54:26.390Z,15.47
2023-05-09T06:56:54.081Z,15.43
2023-05-09T06:59:21.159Z,15.16
2023-05-09T07:01:48.180Z,14.69
2023-05-09T07:04:15.690Z,14.73
2023-05-09T07:06:42.719Z,15.03
2023-05-09T07:09:10.023Z,14.89
2023-05-09T07:11:37.767Z,15.43
2023-05-09T07:14:04.789Z,15.93
2023-05-09T07:16:32.093Z,16.55
2023-05-09T07:18:59.415Z,16.89
2023-05-09T07:21:26.418Z,17.43
2023-05-09T07:23:53.401Z,17.65
2023-05-09T07:26:21.532Z,17.72
2023-05-09T07:28:48.557Z,18.31
2023-05-09T07:31:15.558Z,18.29
2023-05-09T07:33:43.175Z,19.13
2023-05-09T07:36:13.245Z,20.32
2023-05-09T07:38:40.701Z,20.81
2023-05-09T07:41:08.102Z,20.82
2023-05-09T07:43:35.132Z,21.11
2023-05-09T07:46:02.241Z,20.90
2023-05-09T07:48:29.639Z,20.81
2023-05-09T07:50:56.670Z,21.11
2023-05-09T07:53:23.662Z,21.17
2023-05-09T07:55:50.994Z,21.02
2023-05-09T07:58:18.001Z,21.16
2023-05-09T08:00:45.055Z,20.29
2023-05-09T08:03:12.553Z,20.59
2023-05-09T08:05:39.805Z,20.64
2023-05-09T08:08:07.907Z,20.10
2023-05-09T08:10:35.358Z,20.00
2023-05-09T08:13:02.386Z,20.18
2023-05-09T08:15:29.463Z,21.02
2023-05-09T08:17:57.025Z,20.99
2023-05-09T08:20:24.315Z,21.48
2023-05-09T08:22:51.308Z,20.68
2023-05-09T08:25:20.738Z,20.49
2023-05-09T08:27:47.923Z,20.96
2023-05-09T08:30:15.322Z,20.93
2023-05-09T08:32:42.757Z,20.42
2023-05-09T08:35:09.969Z,20.76
2023-05-09T08:37:37.245Z,20.48
2023-05-09T08:40:07.923Z,21.05
2023-05-09T08:42:37.629Z,21.28
2023-05-09T08:45:14.775Z,21.36
2023-05-09T08:47:42.818Z,21.17
2023-05-09T08:50:11.715Z,21.46
2023-05-09T08:52:39.006Z,21.56
2023-05-09T08:55:06.548Z,21.53
2023-05-09T08:57:37.117Z,21.22
2023-05-09T09:00:11.204Z,20.66
2023-05-09T09:02:41.838Z,20.38
2023-05-09T09:05:19.596Z,20.83
2023-05-09T09:07:58.282Z,21.22
2023-05-09T09:10:29.544Z,21.98
2023-05-09T09:12:59.141Z,21.84
2023-05-09T09:15:29.992Z,21.56
2023-05-09T09:18:00.261Z,21.39
2023-05-09T09:20:31.943Z,21.34
2023-05-09T09:23:02.999Z,20.66
2023-05-09T09:25:30.062Z,19.89
2023-05-09T09:27:57.146Z,20.10
2023-05-09T09:30:25.419Z,20.78
2023-05-09T09:32:52.610Z,20.72
2023-05-09T09:35:20.570Z,20.23
2023-05-09T09:37:48.106Z,20.42
2023-05-09T09:40:15.424Z,20.49
2023-05-09T09:42:48.231Z,20.97
2023-05-09T09:45:17.204Z,21.92
2023-05-09T09:47:46.030Z,22.59
2023-05-09T09:50:18.488Z,21.70
2023-05-09T09:52:51.681Z,20.87
2023-05-09T09:55:20.106Z,20.31
2023-05-09T09:57:48.440Z,19.95
2023-05-09T10:00:17.745Z,19.37
2023-05-09T10:02:53.255Z,18.90
2023-05-09T10:05:31.307Z,20.09
2023-05-09T10:08:01.482Z,19.81
2023-05-09T10:10:30.740Z,19.10
2023-05-09T10:13:06.455Z,18.91
2023-05-09T10:15:49.272Z,19.79
2023-05-09T10:18:26.421Z,19.71
2023-05-09T10:20:55.078Z,19.05
2023-05-09T10:23:24.200Z,18.88
2023-05-09T10:26:05.579Z,19.72
2023-05-09T10:28:36.192Z,19.74
2023-05-09T10:31:19.035Z,19.78
2023-05-09T10:33:48.805Z,19.40
2023-05-09T10:36:21.341Z,20.27
2023-05-09T10:38:55.347Z,20.75
2023-05-09T10:41:23.681Z,20.38
2023-05-09T10:43:52.179Z,20.26
2023-05-09T10:46:20.212Z,19.83
2023-05-09T10:48:50.902Z,19.29
2023-05-09T10:51:18.438Z,18.95
2023-05-09T10:53:48.512Z,19.48
2023-05-09T10:56:28.914Z,20.39
2023-05-09T10:58:56.523Z,21.85
2023-05-09T11:01:34.915Z,22.99
2023-05-09T11:04:14.890Z,23.22
2023-05-09T11:06:42.060Z,23.56
2023-05-09T11:09:28.203Z,24.00
2023-05-09T11:11:57.329Z,23.40
2023-05-09T11:14:43.010Z,21.87
2023-05-09T11:17:22.736Z,20.61
2023-05-09T11:19:50.404Z,20.45
2023-05-09T11:22:32.542Z,20.49
2023-05-09T11:25:13.318Z,20.33
2023-05-09T11:27:48.670Z,20.27
2023-05-09T11:30:19.074Z,20.14
2023-05-09T11:32:55.164Z,20.80
2023-05-09T11:35:23.921Z,21.43
2023-05-09T11:38:04.124Z,22.16
2023-05-09T11:40:33.219Z,22.20
2023-05-09T11:43:01.418Z,21.74
2023-05-09T11:45:33.417Z,22.31
2023-05-09T11:48:01.358Z,22.45
2023-05-09T11:50:28.638Z,21.75
2023-05-09T11:52:56.033Z,21.06
2023-05-09T11:55:25.243Z,21.76
2023-05-09T11:57:54.231Z,22.08
2023-05-09T12:00:23.473Z,21.37
2023-05-09T12:02:52.672Z,20.87
2023-05-09T12:05:21.450Z,20.45
2023-05-09T12:07:48.958Z,19.92
2023-05-09T12:10:20.183Z,19.99
2023-05-09T12:12:49.194Z,20.49
2023-05-09T12:15:18.017Z,21.61
2023-05-09T12:17:47.403Z,21.87
2023-05-09T12:20:16.504Z,21.45
2023-05-09T12:22:44.169Z,20.79
2023-05-09T12:25:12.224Z,20.33
2023-05-09T12:27:40.940Z,20.13
2023-05-09T12:30:10.748Z,19.87
2023-05-09T12:32:40.371Z,20.14
2023-05-09T12:35:09.867Z,20.61
2023-05-09T12:37:37.039Z,20.74
2023-05-09T12:40:07.345Z,21.26
2023-05-09T12:42:35.832Z,21.15
2023-05-09T12:45:04.225Z,20.89
2023-05-09T12:47:32.146Z,21.21
2023-05-09T12:50:01.139Z,20.96
2023-05-09T12:52:50.099Z,20.74
2023-05-09T12:55:25.718Z,20.59
2023-05-09T12:58:03.299Z,20.17
2023-05-09T13:00:42.779Z,19.74
2023-05-09T13:03:25.079Z,19.92
2023-05-09T13:06:02.377Z,20.60
2023-05-09T13:08:29.695Z,20.20
2023-05-09T13:11:07.851Z,19.59
2023-05-09T13:13:42.499Z,19.51
2023-05-09T13:16:11.546Z,20.15
2023-05-09T13:18:39.851Z,20.84
2023-05-09T13:21:07.345Z,20.89
2023-05-09T13:23:34.834Z,20.60
2023-05-09T13:26:01.911Z,20.29
2023-05-09T13:28:29.122Z,19.90
2023-05-09T13:30:56.750Z,20.06
2023-05-09T13:33:26.591Z,20.80
2023-05-09T13:35:54.165Z,21.44
2023-05-09T13:38:22.295Z,22.12
2023-05-09T13:40:49.550Z,22.28
2023-05-09T13:43:16.603Z,22.46
2023-05-09T13:45:44.072Z,22.28
2023-05-09T13:48:11.755Z,21.95
2023-05-09T13:50:39.201Z,22.00
2023-05-09T13:53:06.825Z,22.57
2023-05-09T13:55:34.590Z,22.47
2023-05-09T13:58:01.759Z,21.91
2023-05-09T14:00:29.264Z,21.54
2023-05-09T14:02:56.774Z,20.74
2023-05-09T14:05:23.914Z,20.58
2023-05-09T14:07:51.177Z,20.64
2023-05-09T14:10:18.721Z,20.67
2023-05-09T14:12:47.252Z,20.51
2023-05-09T14:15:14.466Z,20.33
2023-05-09T14:17:43.618Z,20.36
2023-05-09T14:20:11.238Z,20.49
2023-05-09T14:22:38.596Z,20.42
2023-05-09T14:25:06.389Z,20.38
2023-05-09T14:27:36.972Z,20.71
2023-05-09T14:30:04.913Z,20.75
2023-05-09T14:32:32.832Z,20.55
2023-05-09T14:34:59.981Z,20.58
2023-05-09T14:37:27.082Z,20.58
2023-05-09T14:39:54.490Z,20.58
2023-05-09T14:42:21.639Z,20.67
2023-05-09T14:44:48.823Z,20.56
2023-05-09T14:47:16.991Z,20.77
2023-05-09T14:49:44.233Z,20.76
2023-05-09T14:52:11.453Z,20.51
2023-05-09T14:54:38.903Z,20.17
2023-05-09T14:57:07.454Z,19.88
2023-05-09T14:59:36.883Z,19.61
2023-05-09T15:02:04.635Z,19.86
2023-05-09T15:04:31.873Z,19.99
2023-05-09T15:06:59.778Z,20.11
2023-05-09T15:09:27.350Z,20.02
2023-05-09T15:11:55.160Z,19.98
2023-05-09T15:14:22.335Z,19.83
2023-05-09T15:16:52.261Z,19.67
2023-05-09T15:19:19.524Z,19.66
2023-05-09T15:21:46.657Z,19.70
2023-05-09T15:24:14.092Z,19.89
2023-05-09T15:26:41.159Z,20.10
2023-05-09T15:29:08.315Z,20.00
2023-05-09T15:31:36.270Z,19.82
2023-05-09T15:34:03.638Z,19.74
2023-05-09T15:36:31.056Z,19.77
2023-05-09T15:38:58.611Z,19.82
2023-05-09T15:41:25.757Z,19.77
2023-05-09T15:43:53.085Z,19.66
2023-05-09T15:46:20.646Z,19.26
2023-05-09T15:48:47.723Z,19.09
2023-05-09T15:51:14.950Z,19.02
2023-05-09T15:53:42.467Z,19.00
2023-05-09T15:56:09.549Z,18.97
2023-05-09T15:58:36.882Z,18.78
2023-05-09T16:01:06.121Z,18.51
2023-05-09T16:03:36.486Z,18.18
2023-05-09T16:06:04.082Z,18.17
2023-05-09T16:08:31.188Z,18.18
2023-05-09T16:11:00.949Z,17.99
2023-05-09T16:13:28.329Z,17.90
2023-05-09T16:15:56.469Z,17.89
2023-05-09T16:18:24.164Z,17.97
2023-05-09T16:20:51.488Z,18.10
2023-05-09T16:23:18.582Z,18.17
2023-05-09T16:25:46.081Z,18.32
2023-05-09T16:28:13.197Z,18.38
2023-05-09T16:30:40.623Z,18.39
2023-05-09T16:33:08.039Z,18.28
2023-05-09T16:35:35.990Z,18.20
2023-05-09T16:38:03.052Z,18.13
2023-05-09T16:40:30.495Z,18.08
2023-05-09T16:42:57.568Z,17.95
2023-05-09T16:45:25.205Z,17.78
2023-05-09T16:47:54.098Z,17.46
2023-05-09T16:50:21.684Z,17.43
2023-05-09T16:52:48.903Z,17.35
2023-05-09T16:55:16.519Z,17.28
2023-05-09T16:57:43.593Z,17.24
2023-05-09T17:00:11.064Z,17.17
2023-05-09T17:02:38.636Z,16.94
2023-05-09T17:05:06.334Z,16.77
2023-05-09T17:07:33.464Z,16.59
2023-05-09T17:10:00.800Z,16.53
2023-05-09T17:12:27.879Z,16.31
2023-05-09T17:14:54.970Z,16.14
2023-05-09T17:17:22.353Z,16.03
2023-05-09T17:19:49.502Z,15.92
2023-05-09T17:22:16.582Z,15.82
2023-05-09T17:24:44.090Z,15.83
2023-05-09T17:27:11.526Z,15.66
2023-05-09T17:29:38.738Z,15.68
2023-05-09T17:32:06.767Z,15.64
2023-05-09T17:34:34.003Z,15.55
2023-05-09T17:37:02.353Z,15.44
2023-05-09T17:39:30.031Z,15.30
2023-05-09T17:41:57.296Z,15.26
2023-05-09T17:44:24.548Z,15.22
2023-05-09T17:46:51.936Z,15.02
2023-05-09T17:49:19.073Z,14.87
2023-05-09T17:51:46.329Z,14.81
2023-05-09T17:54:14.367Z,14.72
2023-05-09T17:56:42.199Z,14.67
2023-05-09T17:59:09.280Z,14.57
2023-05-09T18:01:36.661Z,14.54
2023-05-09T18:04:04.275Z,14.39
2023-05-09T18:06:31.339Z,14.22
2023-05-09T18:08:58.362Z,14.13
2023-05-09T18:11:26.160Z,14.01
2023-05-09T18:13:53.476Z,13.94
2023-05-09T18:16:20.585Z,13.92
2023-05-09T18:18:48.162Z,13.77
2023-05-09T18:21:15.291Z,13.80
2023-05-09T18:23:42.632Z,13.70
2023-05-09T18:26:10.058Z,13.72
2023-05-09T18:28:40.262Z,13.79
2023-05-09T18:31:09.749Z,13.71
2023-05-09T18:33:39.022Z,13.55
2023-05-09T18:36:09.500Z,13.58
2023-05-09T18:38:38.766Z,13.55
2023-05-09T18:41:07.812Z,13.62
2023-05-09T18:43:35.956Z,13.59
2023-05-09T18:46:03.710Z,13.51
2023-05-09T18:48:34.075Z,13.45
2023-05-09T18:51:01.229Z,13.51
2023-05-09T18:53:29.123Z,13.33
2023-05-09T18:55:57.653Z,13.30
2023-05-09T18:58:25.111Z,13.26
2023-05-09T19:00:53.096Z,13.17
2023-05-09T19:03:20.952Z,13.02
2023-05-09T19:05:48.080Z,13.02
2023-05-09T19:08:15.671Z,13.05
2023-05-09T19:10:43.407Z,13.06
2023-05-09T19:13:16.086Z,13.02
2023-05-09T19:15:43.977Z,12.97
2023-05-09T19:18:11.523Z,13.00
2023-05-09T19:20:38.580Z,12.96
2023-05-09T19:23:05.973Z,12.96
2023-05-09T19:25:33.874Z,12.88
2023-05-09T19:28:00.946Z,12.96
2023-05-09T19:30:28.379Z,12.94
2023-05-09T19:32:55.577Z,12.90
2023-05-09T19:35:22.739Z,12.79
2023-05-09T19:37:50.136Z,12.72
2023-05-09T19:40:17.854Z,12.60
2023-05-09T19:42:45.271Z,12.49
2023-05-09T19:45:12.664Z,12.59
2023-05-09T19:47:39.836Z,12.62
2023-05-09T19:50:07.472Z,12.54
2023-05-09T19:52:37.104Z,12.49
2023-05-09T19:55:05.928Z,12.64
2023-05-09T19:57:33.258Z,12.61
2023-05-09T20:00:00.738Z,12.63
2023-05-09T20:02:27.907Z,12.64
2023-05-09T20:04:55.356Z,12.64
2023-05-09T20:07:22.434Z,12.64
2023-05-09T20:09:49.454Z,12.72
2023-05-09T20:12:17.047Z,12.75
2023-05-09T20:14:44.416Z,12.68
2023-05-09T20:17:11.438Z,12.69
2023-05-09T20:19:38.743Z,12.58
2023-05-09T20:22:06.619Z,12.60
2023-05-09T20:24:33.686Z,12.54
2023-05-09T20:27:02.640Z,12.41
2023-05-09T20:29:29.643Z,12.45
2023-05-09T20:31:56.663Z,12.55
2023-05-09T20:34:24.708Z,12.46
2023-05-09T20:36:55.119Z,12.37
2023-05-09T20:39:23.229Z,12.37
2023-05-09T20:41:52.176Z,12.29
2023-05-09T20:44:19.423Z,12.09
2023-05-09T20:46:46.512Z,12.09
2023-05-09T20:49:15.416Z,12.12
2023-05-09T20:51:42.440Z,12.06
2023-05-09T20:54:09.413Z,12.09
2023-05-09T20:56:36.742Z,11.96
2023-05-09T20:59:04.296Z,12.02
2023-05-09T21:01:34.297Z,12.08
2023-05-09T21:04:01.848Z,11.96
2023-05-09T21:06:28.880Z,11.87
2023-05-09T21:08:55.849Z,11.85
2023-05-09T21:11:23.174Z,11.86
2023-05-09T21:13:50.696Z,11.81
2023-05-09T21:16:17.662Z,11.73
2023-05-09T21:18:44.962Z,11.71
2023-05-09T21:21:11.996Z,11.76
2023-05-09T21:23:38.989Z,11.71
2023-05-09T21:26:06.308Z,11.83
2023-05-09T21:28:33.825Z,11.76
2023-05-09T21:31:01.678Z,11.79
2023-05-09T21:33:29.677Z,11.74
2023-05-09T21:35:57.211Z,11.83
2023-05-09T21:38:24.288Z,11.81
2023-05-09T21:40:51.731Z,11.86
2023-05-09T21:43:19.287Z,11.82
2023-05-09T21:45:46.431Z,11.82
2023-05-09T21:48:13.765Z,11.82
2023-05-09T21:50:43.447Z,11.71
2023-05-09T21:53:10.929Z,11.73
2023-05-09T21:55:38.248Z,11.61
2023-05-09T21:58:05.277Z,11.60
2023-05-09T22:00:32.308Z,11.61
2023-05-09T22:02:59.721Z,11.52
2023-05-09T22:05:26.777Z,11.55
2023-05-09T22:07:53.784Z,11.57
2023-05-09T22:10:21.115Z,11.65
2023-05-09T22:12:48.354Z,11.69
2023-05-09T22:15:15.441Z,11.81
2023-05-09T22:17:42.843Z,11.87
2023-05-09T22:20:10.419Z,11.83
2023-05-09T22:22:37.452Z,11.79
2023-05-09T22:25:05.264Z,11.67
2023-05-09T22:27:32.287Z,11.62
2023-05-09T22:29:59.337Z,11.61
2023-05-09T22:32:26.871Z,11.53
2023-05-09T22:34:54.225Z,11.62
2023-05-09T22:37:21.625Z,11.62
2023-05-09T22:39:48.986Z,11.72
2023-05-09T22:42:16.145Z,11.66
2023-05-09T22:44:43.257Z,11.67
2023-05-09T22:47:10.616Z,11.64
2023-05-09T22:49:37.693Z,11.72
2023-05-09T22:52:04.852Z,11.64
2023-05-09T22:54:32.365Z,11.62
2023-05-09T22:56:59.399Z,11.58
2023-05-09T22:59:27.089Z,11.52
2023-05-09T23:01:54.457Z,11.54
2023-05-09T23:04:21.792Z,11.48
2023-05-09T23:06:48.831Z,11.33
2023-05-09T23:09:16.087Z,11.26
2023-05-09T23:11:43.103Z,11.33
2023-05-09T23:14:10.452Z,11.19
2023-05-09T23:16:37.735Z,11.22
2023-05-09T23:19:04.706Z,11.21
2023-05-09T23:21:31.773Z,11.01
2023-05-09T23:23:59.269Z,10.95
2023-05-09T23:26:26.366Z,10.84
2023-05-09T23:28:55.265Z,10.73
2023-05-09T23:31:22.784Z,10.67
2023-05-09T23:33:50.046Z,10.73
2023-05-09T23:36:17.309Z,10.50
2023-05-09T23:38:44.696Z,10.44
2023-05-09T23:41:11.664Z,10.52
2023-05-09T23:43:38.732Z,10.40
2023-05-09T23:46:06.089Z,10.31
2023-05-09T23:48:33.061Z,10.22
2023-05-09T23:51:00.097Z,10.24
2023-05-09T23:53:27.653Z,10.21
2023-05-09T23:55:55.077Z,10.13
2023-05-09T23:58:22.184Z,10.03
